Time,TemperatureF,DewpointF,PressureIn,WindDirection,WindDirectionDegrees,WindSpeedMPH,WindSpeedGustMPH,Humidity,HourlyPrecipIn,Conditions,Clouds,dailyrainin,SolarRadiationWatts/m^2,UVIndex,SoftwareType,DateUTC
2026-05-07 00:04:59,72.7,62.9,29.90,SW,222,3.9,7.2,71.5,0.00,,,0.00,0,0,n/a,2026-05-07T04:04:59Z
2026-05-07 00:09:57,72.3,63.1,29.90,WSW,239,2.5,6.9,72.8,0.00,,,0.00,0,0,n/a,2026-05-07T04:09:57Z
2026-05-07 00:14:59,72,63.3,29.92,West,275,1.1,3.6,74.1,0.00,,,0.00,0,0,n/a,2026-05-07T04:14:59Z
2026-05-07 00:19:58,71.7,63.4,29.92,West,261,0.2,1.2,75,0.00,,,0.00,0,0,n/a,2026-05-07T04:19:58Z
2026-05-07 00:24:57,71.5,63.4,29.92,NW,326,0.9,3.6,75.7,0.00,,,0.00,0,0,n/a,2026-05-07T04:24:57Z
2026-05-07 00:29:56,71.2,63.6,29.92,NW,319,1.2,3.5,76.9,0.00,,,0.00,0,0,n/a,2026-05-07T04:29:56Z
2026-05-07 00:34:58,70.9,63.7,29.92,SSW,209,0.5,2.4,78,0.00,,,0.00,0,0,n/a,2026-05-07T04:34:58Z
2026-05-07 00:39:58,70.7,63.7,29.92,SSW,208,1.2,2.4,78.7,0.00,,,0.00,0,0,n/a,2026-05-07T04:39:58Z
2026-05-07 00:44:56,70.4,64.1,29.93,SW,236,1.1,3.6,80.5,0.00,,,0.00,0,0,n/a,2026-05-07T04:44:56Z
2026-05-07 00:49:59,70.1,64,29.93,West,281,1.8,3.6,81,0.00,,,0.00,0,0,n/a,2026-05-07T04:49:59Z
2026-05-07 00:54:57,69.9,64.1,29.93,NW,320,2.9,8.4,81.9,0.02,,,0.02,0,0,n/a,2026-05-07T04:54:57Z
2026-05-07 00:59:59,69.7,64.4,29.94,NW,311,3.4,7.2,83.4,0.04,,,0.05,0,0,n/a,2026-05-07T04:59:59Z
2026-05-07 01:04:58,69.2,64.6,29.94,WNW,292,2.9,8.4,85.3,0.09,,,0.11,0,0,n/a,2026-05-07T05:04:58Z
2026-05-07 01:09:58,68.7,64.6,29.94,WSW,239,1.4,3.6,86.7,0.16,,,0.17,0,0,n/a,2026-05-07T05:09:58Z
2026-05-07 01:14:57,68.4,64.6,29.94,WSW,253,2.3,4.8,87.7,0.18,,,0.19,0,0,n/a,2026-05-07T05:14:57Z
2026-05-07 01:19:56,68.1,64.7,29.94,West,279,1.2,4.8,89,0.25,,,0.25,0,0,n/a,2026-05-07T05:19:56Z
2026-05-07 01:24:58,67.9,64.8,29.94,NW,311,1.3,6,89.8,0.28,,,0.28,0,0,n/a,2026-05-07T05:24:58Z
2026-05-07 01:29:56,67.8,64.9,29.94,NE,42,4.2,10.8,90.4,0.29,,,0.30,0,0,n/a,2026-05-07T05:29:56Z
2026-05-07 01:34:59,67.5,64.8,29.88,SE,132,4.4,10.4,91,0.33,,,0.33,0,0,n/a,2026-05-07T05:34:59Z
2026-05-07 01:39:58,67.3,64.8,29.88,SSE,152,2.3,3.6,91.6,0.34,,,0.34,0,0,n/a,2026-05-07T05:39:58Z
2026-05-07 01:44:56,67.2,64.8,29.89,SSW,201,3.2,4.8,92,0.34,,,0.34,0,0,n/a,2026-05-07T05:44:56Z
2026-05-07 01:49:59,67.1,64.7,29.89,South,182,2.9,6,92,0.34,,,0.34,0,0,n/a,2026-05-07T05:49:59Z
2026-05-07 01:54:57,67,64.7,29.89,South,185,2.1,3.6,92.3,0.34,,,0.34,0,0,n/a,2026-05-07T05:54:57Z
2026-05-07 01:59:56,67,64.9,29.89,SSE,166,1,2.4,93,0.32,,,0.34,0,0,n/a,2026-05-07T05:59:56Z
2026-05-07 02:04:56,66.9,64.8,29.88,SSE,164,2.2,3.6,93,0.29,,,0.34,0,0,n/a,2026-05-07T06:04:56Z
2026-05-07 02:09:56,66.9,64.8,29.88,South,184,1.9,3.6,93,0.23,,,0.34,0,0,n/a,2026-05-07T06:09:56Z
2026-05-07 02:14:56,66.8,64.7,29.90,South,171,2,4.8,93,0.17,,,0.34,0,0,n/a,2026-05-07T06:14:56Z
2026-05-07 02:19:57,66.8,64.7,29.90,SW,215,1.4,2.4,93,0.15,,,0.34,0,0,n/a,2026-05-07T06:19:57Z
2026-05-07 02:24:56,66.7,64.6,29.90,SW,222,0.3,2.4,93,0.09,,,0.34,0,0,n/a,2026-05-07T06:24:56Z
2026-05-07 02:29:59,66.7,64.8,29.90,SW,221,0.2,1.2,93.8,0.06,,,0.34,0,0,n/a,2026-05-07T06:29:59Z
2026-05-07 02:34:58,66.7,64.9,29.89,SW,221,0.1,1.2,94,0.04,,,0.34,0,0,n/a,2026-05-07T06:34:58Z
2026-05-07 02:39:58,66.6,64.8,29.89,South,169,1.1,2.4,94,0.01,,,0.34,0,0,n/a,2026-05-07T06:39:58Z
2026-05-07 02:44:56,66.6,64.8,29.89,SSE,159,0.9,2.4,94,0.00,,,0.34,0,0,n/a,2026-05-07T06:44:56Z
2026-05-07 02:49:59,66.6,64.8,29.88,SSE,161,1.1,2.3,94,0.00,,,0.34,0,0,n/a,2026-05-07T06:49:59Z
2026-05-07 02:54:58,66.5,64.7,29.88,South,169,0.8,1.2,94,0.00,,,0.34,0,0,n/a,2026-05-07T06:54:58Z
2026-05-07 02:59:57,66.4,64.6,29.88,SSE,168,0.8,2.4,94,0.00,,,0.34,0,0,n/a,2026-05-07T06:59:57Z
2026-05-07 03:04:58,66.4,64.6,29.87,SSE,155,1.4,2.4,94,0.00,,,0.34,0,0,n/a,2026-05-07T07:04:58Z
2026-05-07 03:09:58,66.3,64.5,29.87,SSW,202,1.6,3.6,94,0.00,,,0.34,0,0,n/a,2026-05-07T07:09:58Z
2026-05-07 03:14:58,66.3,64.5,29.87,SSW,196,2.1,3.6,94,0.00,,,0.34,0,0,n/a,2026-05-07T07:14:58Z
2026-05-07 03:19:57,66.2,64.4,29.87,SSE,165,1.9,4.8,94,0.00,,,0.34,0,0,n/a,2026-05-07T07:19:57Z
2026-05-07 03:24:59,66.1,64.3,29.87,South,183,3.1,6,94,0.00,,,0.34,0,0,n/a,2026-05-07T07:24:59Z
2026-05-07 03:29:58,66.1,64.3,29.88,SW,219,1.2,3.6,94,0.00,,,0.34,0,0,n/a,2026-05-07T07:29:58Z
2026-05-07 03:34:56,66.1,64.3,29.88,SSE,151,2.1,4.8,94,0.00,,,0.34,0,0,n/a,2026-05-07T07:34:56Z
2026-05-07 03:39:56,66.1,64.3,29.88,SSE,152,1.5,3.6,94,0.00,,,0.34,0,0,n/a,2026-05-07T07:39:56Z
2026-05-07 03:44:58,66.1,64.4,29.88,SSW,205,1.4,3.6,94.4,0.01,,,0.35,0,0,n/a,2026-05-07T07:44:58Z
2026-05-07 03:49:57,66.1,64.6,29.87,SW,217,1.6,3.6,94.9,0.01,,,0.35,0,0,n/a,2026-05-07T07:49:57Z
2026-05-07 03:54:59,66.1,64.6,29.87,SSW,198,0.3,2.4,95,0.02,,,0.36,0,0,n/a,2026-05-07T07:54:59Z
2026-05-07 03:59:57,66.1,64.6,29.87,SSW,198,0.4,2.4,95,0.02,,,0.36,0,0,n/a,2026-05-07T07:59:57Z
2026-05-07 04:04:57,66,64.4,29.87,South,180,1.7,2.4,94.5,0.03,,,0.37,0,0,n/a,2026-05-07T08:04:57Z
2026-05-07 04:09:57,66,64.3,29.87,SSE,159,3.1,6,94.3,0.04,,,0.38,0,0,n/a,2026-05-07T08:09:57Z
2026-05-07 04:14:56,66,64.4,29.87,SSE,163,4.4,8.4,94.8,0.04,,,0.38,0,0,n/a,2026-05-07T08:14:56Z
2026-05-07 04:19:58,66,64.5,29.84,SW,229,2.5,8.1,95,0.05,,,0.39,0,0,n/a,2026-05-07T08:19:58Z
2026-05-07 04:24:56,66,64.5,29.84,SSW,203,2.6,4.8,95,0.06,,,0.40,0,0,n/a,2026-05-07T08:24:56Z
2026-05-07 04:29:58,66,64.5,29.87,SSW,211,3,6,95,0.06,,,0.40,0,0,n/a,2026-05-07T08:29:58Z
2026-05-07 04:34:57,66.1,64.6,29.87,SW,215,3.3,6,95,0.07,,,0.41,0,0,n/a,2026-05-07T08:34:57Z
2026-05-07 04:39:56,66.1,64.6,29.87,SW,215,5.1,8.4,95,0.08,,,0.42,0,0,n/a,2026-05-07T08:39:56Z
2026-05-07 04:44:58,66.2,64.7,29.87,SSW,204,4.2,9.6,95,0.09,,,0.45,0,0,n/a,2026-05-07T08:44:58Z
2026-05-07 04:49:56,66.2,64.7,29.86,SSW,198,5.7,9.6,95,0.11,,,0.46,0,0,n/a,2026-05-07T08:49:56Z
2026-05-07 04:54:59,66.2,64.7,29.86,SSW,211,5.4,9.2,95,0.12,,,0.49,0,0,n/a,2026-05-07T08:54:59Z
2026-05-07 04:59:57,66.2,64.7,29.86,SSW,204,6.2,10.8,95,0.15,,,0.51,0,0,n/a,2026-05-07T08:59:57Z
2026-05-07 05:04:56,66.3,64.8,29.85,SSW,205,7.8,15,95,0.16,,,0.52,0,0,n/a,2026-05-07T09:04:56Z
2026-05-07 05:09:56,66.3,64.8,29.85,SSW,197,6.3,13.2,95,0.16,,,0.53,0,0,n/a,2026-05-07T09:09:56Z
2026-05-07 05:14:59,66.4,64.9,29.85,SSW,207,6.9,13.2,95,0.15,,,0.53,0,0,n/a,2026-05-07T09:14:59Z
2026-05-07 05:19:57,66.4,64.9,29.84,SSW,210,4.2,9.2,95,0.15,,,0.53,0,0,n/a,2026-05-07T09:19:57Z
2026-05-07 05:24:59,66.4,64.9,29.84,SW,226,4.4,9.6,95,0.14,,,0.53,0,0,n/a,2026-05-07T09:24:59Z
2026-05-07 05:29:58,66.5,65,29.84,SW,214,2.9,6,95,0.13,,,0.53,0,0,n/a,2026-05-07T09:29:58Z
2026-05-07 05:34:57,66.5,65,29.84,SW,224,3.5,7.2,95,0.13,,,0.53,0,0,n/a,2026-05-07T09:34:57Z
2026-05-07 05:39:57,66.5,65,29.84,SSW,204,3.9,7.2,95,0.12,,,0.53,0,0,n/a,2026-05-07T09:39:57Z
2026-05-07 05:44:56,66.5,65,29.84,SSW,213,3.6,10.8,95,0.11,,,0.53,0,0,n/a,2026-05-07T09:44:56Z
2026-05-07 05:49:59,66.5,65,29.84,SW,226,4.4,10.8,95,0.08,,,0.54,0,0,n/a,2026-05-07T09:49:59Z
2026-05-07 05:54:57,66.5,65,29.84,SW,214,5,8.4,95,0.08,,,0.54,0,0,n/a,2026-05-07T09:54:57Z
2026-05-07 05:59:56,66.5,65,29.84,SW,224,2.5,6,95,0.05,,,0.54,0,0,n/a,2026-05-07T09:59:56Z
2026-05-07 06:04:59,66.5,65,29.84,SW,224,2.8,6,95,0.03,,,0.54,0,0,n/a,2026-05-07T10:04:59Z
2026-05-07 06:09:57,66.5,65,29.84,SW,218,3,6,95,0.02,,,0.54,0,0,n/a,2026-05-07T10:09:57Z
2026-05-07 06:14:56,66.5,65,29.85,SW,228,1.2,2.4,95,0.01,,,0.54,0,0,n/a,2026-05-07T10:14:56Z
2026-05-07 06:19:58,66.5,65,29.85,WSW,238,2.6,6,95,0.02,,,0.55,0,0,n/a,2026-05-07T10:19:58Z
2026-05-07 06:24:57,66.5,65,29.85,SW,227,2,6,95,0.02,,,0.55,0,0,n/a,2026-05-07T10:24:57Z
2026-05-07 06:29:56,66.5,65,29.85,SW,214,2.4,6,95,0.02,,,0.55,0,0,n/a,2026-05-07T10:29:56Z
2026-05-07 06:34:59,66.5,65,29.85,SSW,205,3.2,7.2,95,0.02,,,0.55,0,0,n/a,2026-05-07T10:34:59Z
2026-05-07 06:39:58,66.5,65,29.85,SSW,204,4.3,10.8,95,0.02,,,0.55,0,0,n/a,2026-05-07T10:39:58Z
2026-05-07 06:44:58,66.5,65,29.85,SW,218,3.7,7.2,95,0.03,,,0.56,0,0,n/a,2026-05-07T10:44:58Z
2026-05-07 06:49:56,66.5,65,29.85,SSW,200,4.1,7.2,95,0.03,,,0.56,5,0,n/a,2026-05-07T10:49:56Z
2026-05-07 06:54:58,66.5,65,29.85,SSW,213,4.9,10.8,95,0.03,,,0.57,5,0,n/a,2026-05-07T10:54:58Z
2026-05-07 06:59:57,66.5,65,29.85,SW,217,3.9,8.4,95,0.03,,,0.57,5,0,n/a,2026-05-07T10:59:57Z
2026-05-07 07:04:56,66.5,65,29.85,SW,216,3.7,7.2,95,0.03,,,0.57,5,0,n/a,2026-05-07T11:04:56Z
2026-05-07 07:09:56,66.6,65.1,29.85,SW,223,4,8.4,95,0.03,,,0.57,9,0,n/a,2026-05-07T11:09:56Z
2026-05-07 07:14:59,66.6,65.1,29.86,SW,226,2.4,4.8,95,0.03,,,0.57,9,0,n/a,2026-05-07T11:14:59Z
2026-05-07 07:19:57,66.6,65.1,29.86,SW,218,2.6,6,95,0.03,,,0.57,7,0,n/a,2026-05-07T11:19:57Z
2026-05-07 07:24:59,66.6,65.1,29.86,SSW,210,2.8,6,95,0.02,,,0.57,7,0,n/a,2026-05-07T11:24:59Z
2026-05-07 07:29:57,66.6,65.1,29.86,SSW,213,3,4.8,95,0.02,,,0.57,9,0,n/a,2026-05-07T11:29:57Z
2026-05-07 07:34:59,66.6,65.1,29.86,SSW,206,2.6,4.8,95,0.02,,,0.57,14,0,n/a,2026-05-07T11:34:59Z
2026-05-07 07:39:58,66.7,65.2,29.86,SSW,208,2.7,6,95,0.02,,,0.57,23,0,n/a,2026-05-07T11:39:58Z
2026-05-07 07:44:56,66.8,65.3,29.86,SW,217,3.1,6,95,0.02,,,0.57,32,0,n/a,2026-05-07T11:44:56Z
2026-05-07 07:49:58,66.8,65.4,29.85,SW,221,3.1,6,95.2,0.01,,,0.57,21,0,n/a,2026-05-07T11:49:58Z
2026-05-07 07:54:56,66.9,65.6,29.85,SSW,208,3.1,6,95.7,0.01,,,0.57,19,0,n/a,2026-05-07T11:54:56Z
2026-05-07 07:59:56,66.9,65.7,29.85,SW,218,2.7,6,96,0.00,,,0.57,18,0,n/a,2026-05-07T11:59:56Z
2026-05-07 08:04:59,67,65.7,29.85,SSW,198,3.1,6,95.7,0.00,,,0.57,19,0,n/a,2026-05-07T12:04:59Z
2026-05-07 08:09:59,67,65.7,29.85,SSW,201,3.9,8.4,95.7,0.00,,,0.57,25,0,n/a,2026-05-07T12:09:59Z
2026-05-07 08:14:58,67,65.8,29.85,SSW,208,3.6,6,95.8,0.00,,,0.57,30,0,n/a,2026-05-07T12:14:58Z
2026-05-07 08:19:56,67.1,65.9,29.85,SW,217,2.6,6,96,0.00,,,0.57,32,0,n/a,2026-05-07T12:19:56Z
2026-05-07 08:24:57,67.2,65.9,29.85,SSW,207,4.4,8.4,95.9,0.00,,,0.57,40,0,n/a,2026-05-07T12:24:57Z
2026-05-07 08:29:56,67.2,65.7,29.85,SW,220,3.8,8.4,95,0.00,,,0.57,67,0.5,n/a,2026-05-07T12:29:56Z
2026-05-07 08:34:58,67.4,65.9,29.84,SSW,208,5.1,10.8,95,0.00,,,0.57,84,0.6,n/a,2026-05-07T12:34:58Z
2026-05-07 08:39:57,67.5,66.1,29.84,SSW,212,6.1,13.2,95.1,0.00,,,0.57,84,0.6,n/a,2026-05-07T12:39:57Z
2026-05-07 08:44:58,67.6,66.3,29.84,SW,222,4.8,13.2,95.8,0.00,,,0.57,53,0,n/a,2026-05-07T12:44:58Z
2026-05-07 08:49:57,67.7,66.3,29.83,SSW,208,4.4,12.7,95.4,0.00,,,0.57,47,0,n/a,2026-05-07T12:49:57Z
2026-05-07 08:54:58,67.7,66.2,29.83,SW,229,5.6,12,95,0.00,,,0.57,33,0,n/a,2026-05-07T12:54:58Z
2026-05-07 08:59:56,67.7,66.2,29.83,SW,222,4.1,10.8,95,0.00,,,0.57,33,0,n/a,2026-05-07T12:59:56Z
2026-05-07 09:04:59,67.8,66.3,29.83,SSW,211,4.2,7.2,95,0.00,,,0.57,42,0,n/a,2026-05-07T13:04:59Z
2026-05-07 09:09:59,67.9,66.4,29.83,SW,231,2.8,6,95,0.00,,,0.57,60,0.5,n/a,2026-05-07T13:09:59Z
2026-05-07 09:14:57,68,66.5,29.83,WSW,252,3.3,6,95,0.00,,,0.57,84,0.8,n/a,2026-05-07T13:14:57Z
2026-05-07 09:19:59,68.1,66.6,29.83,WNW,296,0.8,5.8,95,0.00,,,0.57,86,0.8,n/a,2026-05-07T13:19:59Z
2026-05-07 09:24:56,68.3,66.8,29.83,West,266,1.9,4.8,95,0.00,,,0.57,90,0.8,n/a,2026-05-07T13:24:56Z
2026-05-07 09:29:57,68.4,66.9,29.83,WSW,238,1.9,6,95,0.00,,,0.57,69,0.7,n/a,2026-05-07T13:29:57Z
2026-05-07 09:34:58,68.4,66.9,29.83,NW,312,1.7,4.8,95,0.00,,,0.57,84,0.9,n/a,2026-05-07T13:34:58Z
2026-05-07 09:39:57,68.5,67,29.83,WNW,296,1.3,3.6,94.8,0.00,,,0.57,84,0.9,n/a,2026-05-07T13:39:57Z
2026-05-07 09:44:59,68.6,66.8,29.83,WSW,257,1.7,3.6,94.1,0.00,,,0.57,74,0.7,n/a,2026-05-07T13:44:59Z
2026-05-07 09:49:57,68.7,66.9,29.83,SW,227,2.1,8.4,94,0.00,,,0.57,69,0.7,n/a,2026-05-07T13:49:57Z
2026-05-07 09:54:59,68.7,66.9,29.83,SW,216,2.8,6,94,0.00,,,0.57,51,0,n/a,2026-05-07T13:54:59Z
2026-05-07 09:59:56,68.7,66.9,29.84,SW,230,3.5,8.4,94,0.00,,,0.57,65,0.6,n/a,2026-05-07T13:59:56Z
2026-05-07 10:04:59,68.7,66.9,29.84,WSW,255,2.2,8.4,94,0.02,,,0.59,58,0.6,n/a,2026-05-07T14:04:59Z
2026-05-07 10:09:59,68.6,66.8,29.84,WNW,290,3.6,8.4,94,0.02,,,0.59,49,0,n/a,2026-05-07T14:09:59Z
2026-05-07 10:14:57,68.6,66.8,29.84,WNW,283,1.8,4.8,94,0.03,,,0.60,54,0,n/a,2026-05-07T14:14:57Z
2026-05-07 10:19:59,68.6,66.8,29.83,West,263,3,7.2,94,0.03,,,0.61,62,0.7,n/a,2026-05-07T14:19:59Z
2026-05-07 10:24:56,68.5,66.7,29.83,West,278,3.3,6.9,94,0.04,,,0.62,62,0.7,n/a,2026-05-07T14:24:56Z
2026-05-07 10:29:57,68.5,66.7,29.83,NW,312,2.9,6,94,0.06,,,0.64,49,0,n/a,2026-05-07T14:29:57Z
2026-05-07 10:34:58,68.4,66.6,29.83,West,268,3.7,13.2,94,0.08,,,0.65,49,0,n/a,2026-05-07T14:34:58Z
2026-05-07 10:39:57,68.2,66.4,29.83,WNW,288,5.2,13.2,94,0.09,,,0.66,49,0,n/a,2026-05-07T14:39:57Z
2026-05-07 10:44:58,68,66.2,29.83,WSW,250,3.4,8.1,94,0.11,,,0.68,56,0.6,n/a,2026-05-07T14:44:58Z
2026-05-07 10:49:59,68,66.2,29.83,SW,236,3.1,7.2,94,0.12,,,0.69,56,0.6,n/a,2026-05-07T14:49:59Z
2026-05-07 10:54:57,67.9,66.1,29.83,WSW,247,4.9,10.8,94,0.14,,,0.71,51,0,n/a,2026-05-07T14:54:57Z
2026-05-07 10:59:59,67.8,66,29.83,WSW,241,4.9,9.2,94,0.16,,,0.73,39,0,n/a,2026-05-07T14:59:59Z
2026-05-07 11:04:58,67.7,65.9,29.83,SW,214,4.5,8.4,94,0.16,,,0.75,42,0,n/a,2026-05-07T15:04:58Z
2026-05-07 11:09:58,67.6,65.8,29.83,SW,219,4.3,8.4,94,0.17,,,0.77,51,0,n/a,2026-05-07T15:09:58Z
2026-05-07 11:14:57,67.6,65.8,29.83,SSW,212,5,10.8,94,0.18,,,0.77,69,0.8,n/a,2026-05-07T15:14:57Z
2026-05-07 11:19:59,67.5,65.7,29.82,WSW,245,4.6,13.2,94,0.18,,,0.78,102,1.2,n/a,2026-05-07T15:19:59Z
2026-05-07 11:24:57,67.5,65.7,29.82,WSW,237,5.5,15,94,0.17,,,0.78,114,1.3,n/a,2026-05-07T15:24:57Z
2026-05-07 11:29:59,67.6,65.8,29.82,WSW,248,4.1,12,94,0.16,,,0.79,118,1.4,n/a,2026-05-07T15:29:59Z
2026-05-07 11:34:57,67.7,65.9,29.82,WNW,294,2.1,5.8,94,0.15,,,0.79,167,2,n/a,2026-05-07T15:34:57Z
2026-05-07 11:39:56,67.8,66,29.82,SW,220,1.4,3.6,94,0.14,,,0.80,171,2,n/a,2026-05-07T15:39:56Z
2026-05-07 11:44:58,68,66.2,29.82,SW,218,2.9,6,94,0.14,,,0.80,186,2.2,n/a,2026-05-07T15:44:58Z
2026-05-07 11:49:56,68.2,66.4,29.81,WSW,242,1.8,4.8,94.2,0.13,,,0.81,220,2.5,n/a,2026-05-07T15:49:56Z
2026-05-07 11:54:58,68.4,66.6,29.81,SW,228,2.8,7.2,94,0.12,,,0.81,211,2.4,n/a,2026-05-07T15:54:58Z
2026-05-07 11:59:58,68.5,66.7,29.81,SSW,212,2.5,7.2,94,0.10,,,0.81,185,2.2,n/a,2026-05-07T15:59:58Z
2026-05-07 12:04:57,68.6,66.8,29.81,WSW,251,3.2,7.2,94,0.08,,,0.81,153,1.8,n/a,2026-05-07T16:04:57Z
2026-05-07 12:09:57,68.5,66.7,29.81,SW,231,3.3,7.2,94,0.06,,,0.81,172,2.2,n/a,2026-05-07T16:09:57Z
2026-05-07 12:14:56,68.6,66.7,29.82,SW,234,3.4,7.2,93.6,0.04,,,0.81,264,3.1,n/a,2026-05-07T16:14:56Z
2026-05-07 12:19:58,68.7,66.9,29.82,SW,233,2.5,8.4,93.9,0.04,,,0.81,264,3.3,n/a,2026-05-07T16:19:58Z
2026-05-07 12:24:56,68.9,67.1,29.82,West,276,2.6,4.8,94,0.03,,,0.81,185,2.4,n/a,2026-05-07T16:24:56Z
2026-05-07 12:29:58,69,67.1,29.82,West,270,2.3,4.8,93.6,0.03,,,0.81,141,1.8,n/a,2026-05-07T16:29:58Z
2026-05-07 12:34:56,69,67,29.81,SW,235,2.5,4.8,93.3,0.02,,,0.81,130,1.6,n/a,2026-05-07T16:34:56Z
2026-05-07 12:39:59,69.1,67.1,29.81,SW,218,0.5,3.5,93.3,0.02,,,0.81,176,2.2,n/a,2026-05-07T16:39:59Z
2026-05-07 12:44:57,69.3,67.5,29.81,SW,223,2.7,6,94,0.01,,,0.81,179,2.3,n/a,2026-05-07T16:44:57Z
2026-05-07 12:49:59,69.3,67.4,29.80,SW,230,3.9,6,93.5,0.01,,,0.81,121,1.5,n/a,2026-05-07T16:49:59Z